CheckWX is a tool to help pilots better visualize weather data.  It is not intended as a substitute for an official pre-flight weather briefing.

06:08:20 UTC

KSKX METAR
Taos Regional Airport
Taos, New Mexico, USA
Current

12 mins ago

KSKX 230556Z AUTO 15007KT 10SM -RA SCT050 OVC060 06/02 A3023 RMK AO2 RAE06B29 SLP193 P0000 60008 T00610022 10100 20050 53005 $
Observed
Apr-23 @ 05:56 UTC
Wind
  • 150° at 7 KTS
Visibility
10 SM
Flight Rules
VFR
Conditions
Light Rain
Cloud Levels
  • Scattered at 5,000' AGL
  • Overcast at 6,000' AGL
Temperature
C / 43°F
Dewpoint
C / 36°F
Humidity
76%
Altimeter
30.23" Hg
Pressure
1023.72 hPa
Current Rain
0.01"
Previous

1 hour ago

KSKX 230456Z AUTO 07008KT 10SM -RA BKN070 OVC090 06/04 A3020 RMK AO2 SLP187 P0001 T00560039 $
Observed
Apr-23 @ 04:56 UTC
Wind
  • 070° at 8 KTS
Visibility
10 SM
Flight Rules
VFR
Conditions
Light Rain
Cloud Levels
  • Broken at 7,000' AGL
  • Overcast at 9,000' AGL
Temperature
C / 43°F
Dewpoint
C / 39°F
Humidity
87%
Altimeter
30.2" Hg
Pressure
1022.72 hPa
Current Rain
0.01"
Previous

2 hours ago

KSKX 230356Z AUTO 11009KT 10SM -RA BKN034 OVC046 06/04 A3022 RMK AO2 SLP198 P0005 T00560039 $
Observed
Apr-23 @ 03:56 UTC
Wind
  • 110° at 9 KTS
Visibility
10 SM
Flight Rules
VFR
Conditions
Light Rain
Cloud Levels
  • Broken at 3,400' AGL
  • Overcast at 4,600' AGL
Temperature
C / 43°F
Dewpoint
C / 39°F
Humidity
87%
Altimeter
30.22" Hg
Pressure
1023.42 hPa
Current Rain
0.05"